createdAt,value
2023-03-21T00:01:03.908Z,4.19
2023-03-21T00:02:45.334Z,3.84
2023-03-21T00:04:28.402Z,4.26
2023-03-21T00:06:12.556Z,4.48
2023-03-21T00:07:53.865Z,4.60
2023-03-21T00:09:35.161Z,4.76
2023-03-21T00:11:16.441Z,4.82
2023-03-21T00:12:57.719Z,4.88
2023-03-21T00:14:39.008Z,4.32
2023-03-21T00:16:31.442Z,3.67
2023-03-21T00:18:15.464Z,3.50
2023-03-21T00:19:56.732Z,3.46
2023-03-21T00:21:55.573Z,3.95
2023-03-21T00:23:39.258Z,3.69
2023-03-21T00:25:20.605Z,2.90
2023-03-21T00:27:21.954Z,3.26
2023-03-21T00:29:03.232Z,3.20
2023-03-21T00:30:44.567Z,3.27
2023-03-21T00:32:25.868Z,3.44
2023-03-21T00:34:07.188Z,3.42
2023-03-21T00:36:05.695Z,3.35
2023-03-21T00:37:47.247Z,3.09
2023-03-21T00:39:28.650Z,3.32
2023-03-21T00:41:20.970Z,3.48
2023-03-21T00:43:07.364Z,3.25
2023-03-21T00:44:48.690Z,3.20
2023-03-21T00:46:39.765Z,3.09
2023-03-21T00:48:23.945Z,3.20
2023-03-21T00:50:05.230Z,3.21
2023-03-21T00:51:46.541Z,3.44
2023-03-21T00:53:27.868Z,3.47
2023-03-21T00:55:09.124Z,3.99
2023-03-21T00:56:50.428Z,3.69
2023-03-21T00:58:31.728Z,3.18
2023-03-21T01:00:13.069Z,2.19
2023-03-21T01:01:54.408Z,2.50
2023-03-21T01:03:35.767Z,2.81
2023-03-21T01:05:17.121Z,2.31
2023-03-21T01:06:58.407Z,2.67
2023-03-21T01:08:54.997Z,2.18
2023-03-21T01:10:36.301Z,2.13
2023-03-21T01:12:17.621Z,2.15
2023-03-21T01:14:14.776Z,2.68
2023-03-21T01:16:00.283Z,2.92
2023-03-21T01:17:41.598Z,3.34
2023-03-21T01:19:37.524Z,3.05
2023-03-21T01:21:22.253Z,2.43
2023-03-21T01:23:03.553Z,2.33
2023-03-21T01:24:53.866Z,2.93
2023-03-21T01:26:36.600Z,2.99
2023-03-21T01:28:17.877Z,2.29
2023-03-21T01:29:59.867Z,2.53
2023-03-21T01:31:41.483Z,2.01
2023-03-21T01:33:22.846Z,1.93
2023-03-21T01:35:04.128Z,1.96
2023-03-21T01:36:45.521Z,2.23
2023-03-21T01:38:26.862Z,2.10
2023-03-21T01:40:08.159Z,2.30
2023-03-21T01:41:49.527Z,2.57
2023-03-21T01:43:30.851Z,2.76
2023-03-21T01:45:12.143Z,2.90
2023-03-21T01:47:09.323Z,2.95
2023-03-21T01:48:51.479Z,2.72
2023-03-21T01:50:32.780Z,3.01
2023-03-21T01:52:23.641Z,3.02
2023-03-21T01:54:11.297Z,2.76
2023-03-21T01:55:52.605Z,3.26
2023-03-21T01:57:42.408Z,3.28
2023-03-21T01:59:26.625Z,3.12
2023-03-21T02:01:08.051Z,2.72
2023-03-21T02:02:49.400Z,2.55
2023-03-21T02:04:30.727Z,2.94
2023-03-21T02:06:12.067Z,2.85
2023-03-21T02:07:53.365Z,2.76
2023-03-21T02:09:34.659Z,2.38
2023-03-21T02:11:15.953Z,2.52
2023-03-21T02:12:57.244Z,2.09
2023-03-21T02:14:38.581Z,1.93
2023-03-21T02:16:19.903Z,2.31
2023-03-21T02:18:01.260Z,2.13
2023-03-21T02:19:52.757Z,2.06
2023-03-21T02:21:34.782Z,2.42
2023-03-21T02:23:16.102Z,2.60
2023-03-21T02:25:01.452Z,3.10
2023-03-21T02:26:48.206Z,3.43
2023-03-21T02:28:31.490Z,3.83
2023-03-21T02:30:17.403Z,3.95
2023-03-21T02:32:15.129Z,4.01
2023-03-21T02:34:01.506Z,4.19
2023-03-21T02:35:52.361Z,4.44
2023-03-21T02:37:38.347Z,3.70
2023-03-21T02:39:19.818Z,4.17
2023-03-21T02:41:03.371Z,4.24
2023-03-21T02:42:48.921Z,4.36
2023-03-21T02:44:33.066Z,4.27
2023-03-21T02:46:14.358Z,4.55
2023-03-21T02:47:55.701Z,4.43
2023-03-21T02:49:37.026Z,3.98
2023-03-21T02:51:18.300Z,3.82
2023-03-21T02:52:59.634Z,4.22
2023-03-21T02:54:47.929Z,4.43
2023-03-21T02:56:29.955Z,4.39
2023-03-21T02:58:13.371Z,4.14
2023-03-21T03:00:00.260Z,3.73
2023-03-21T03:01:43.854Z,3.88
2023-03-21T03:03:34.139Z,4.17
2023-03-21T03:05:21.316Z,4.14
2023-03-21T03:07:02.979Z,3.60
2023-03-21T03:08:56.288Z,3.25
2023-03-21T03:10:42.488Z,3.47
2023-03-21T03:12:23.830Z,3.65
2023-03-21T03:14:22.748Z,3.38
2023-03-21T03:16:06.423Z,3.59
2023-03-21T03:17:47.713Z,3.36
2023-03-21T03:19:30.031Z,3.34
2023-03-21T03:21:11.424Z,3.61
2023-03-21T03:22:52.697Z,3.60
2023-03-21T03:24:33.988Z,3.93
2023-03-21T03:26:15.342Z,3.84
2023-03-21T03:27:56.614Z,3.91
2023-03-21T03:29:37.884Z,4.15
2023-03-21T03:31:20.930Z,4.12
2023-03-21T03:33:02.363Z,4.10
2023-03-21T03:34:43.637Z,4.28
2023-03-21T03:36:31.971Z,4.25
2023-03-21T03:38:14.235Z,4.48
2023-03-21T03:39:55.538Z,4.44
2023-03-21T03:42:01.629Z,4.40
2023-03-21T03:43:38.171Z,4.44
2023-03-21T03:45:19.654Z,4.22
2023-03-21T03:47:00.976Z,4.01
2023-03-21T03:48:42.304Z,4.16
2023-03-21T03:50:23.584Z,4.21
2023-03-21T03:52:04.969Z,4.16
2023-03-21T03:53:46.285Z,4.25
2023-03-21T03:55:27.557Z,4.23
2023-03-21T03:57:08.860Z,4.32
2023-03-21T03:58:50.160Z,4.43
2023-03-21T04:00:31.444Z,4.35
2023-03-21T04:02:12.808Z,3.93
2023-03-21T04:04:03.785Z,3.30
2023-03-21T04:05:53.444Z,2.86
2023-03-21T04:07:34.800Z,2.67
2023-03-21T04:09:21.062Z,2.84
2023-03-21T04:11:04.730Z,2.88
2023-03-21T04:12:46.012Z,2.71
2023-03-21T04:14:35.655Z,2.89
2023-03-21T04:16:20.207Z,2.84
2023-03-21T04:18:01.533Z,2.60
2023-03-21T04:19:42.836Z,2.41
2023-03-21T04:21:24.111Z,2.47
2023-03-21T04:23:05.426Z,2.76
2023-03-21T04:24:46.715Z,2.77
2023-03-21T04:26:28.019Z,2.74
2023-03-21T04:28:09.340Z,2.70
2023-03-21T04:29:50.620Z,3.11
2023-03-21T04:31:31.910Z,3.27
2023-03-21T04:33:13.281Z,3.38
2023-03-21T04:34:56.706Z,3.69
2023-03-21T04:36:38.006Z,3.64
2023-03-21T04:38:19.316Z,3.68
2023-03-21T04:40:00.646Z,4.08
2023-03-21T04:41:42.124Z,4.28
2023-03-21T04:43:23.442Z,4.30
2023-03-21T04:45:04.712Z,3.75
2023-03-21T04:46:46.009Z,3.22
2023-03-21T04:48:27.429Z,3.06
2023-03-21T04:50:08.705Z,3.43
2023-03-21T04:51:49.987Z,3.36
2023-03-21T04:53:31.348Z,3.56
2023-03-21T04:55:12.704Z,3.88
2023-03-21T04:56:53.977Z,4.02
2023-03-21T04:58:35.298Z,4.20
2023-03-21T05:00:16.594Z,3.81
2023-03-21T05:01:57.913Z,3.42
2023-03-21T05:03:39.225Z,3.52
2023-03-21T05:05:20.510Z,3.42
2023-03-21T05:07:01.838Z,3.54
2023-03-21T05:08:43.139Z,3.13
2023-03-21T05:10:24.403Z,2.64
2023-03-21T05:12:05.715Z,2.30
2023-03-21T05:13:47.014Z,2.16
2023-03-21T05:15:28.311Z,2.57
2023-03-21T05:17:09.608Z,2.82
2023-03-21T05:18:50.945Z,3.14
2023-03-21T05:20:32.239Z,3.24
2023-03-21T05:22:13.549Z,3.55
2023-03-21T05:23:54.919Z,3.89
2023-03-21T05:25:36.465Z,4.05
2023-03-21T05:27:17.950Z,4.11
2023-03-21T05:28:59.251Z,4.19
2023-03-21T05:30:40.576Z,4.08
2023-03-21T05:32:21.916Z,4.00
2023-03-21T05:34:03.231Z,3.95
2023-03-21T05:35:44.585Z,4.11
2023-03-21T05:37:25.941Z,3.69
2023-03-21T05:39:07.217Z,3.33
2023-03-21T05:40:48.517Z,2.81
2023-03-21T05:42:29.934Z,2.48
2023-03-21T05:44:11.300Z,2.75
2023-03-21T05:45:52.679Z,2.94
2023-03-21T05:47:33.987Z,2.74
2023-03-21T05:49:15.273Z,2.39
2023-03-21T05:50:56.558Z,2.43
2023-03-21T05:52:37.863Z,2.71
2023-03-21T05:54:19.212Z,2.62
2023-03-21T05:56:00.613Z,2.66
2023-03-21T05:57:41.976Z,2.99
2023-03-21T05:59:23.279Z,2.86
2023-03-21T06:01:04.589Z,3.01
2023-03-21T06:02:45.974Z,3.12
2023-03-21T06:04:27.315Z,3.27
2023-03-21T06:06:08.581Z,3.43
2023-03-21T06:07:49.908Z,3.29
2023-03-21T06:09:31.213Z,3.50
2023-03-21T06:11:12.492Z,3.18
2023-03-21T06:12:53.772Z,3.11
2023-03-21T06:14:35.151Z,3.39
2023-03-21T06:16:16.443Z,3.42
2023-03-21T06:17:57.870Z,3.65
2023-03-21T06:19:39.178Z,3.90
2023-03-21T06:21:20.756Z,3.98
2023-03-21T06:23:02.367Z,4.16
2023-03-21T06:24:43.682Z,4.43
2023-03-21T06:26:24.971Z,4.45
2023-03-21T06:28:06.274Z,4.34
2023-03-21T06:29:47.589Z,4.36
2023-03-21T06:31:28.936Z,4.64
2023-03-21T06:33:10.237Z,4.75
2023-03-21T06:34:51.556Z,5.11
2023-03-21T06:36:32.884Z,5.40
2023-03-21T06:38:14.183Z,5.54
2023-03-21T06:39:55.796Z,5.45
2023-03-21T06:41:37.109Z,5.48
2023-03-21T06:43:18.416Z,5.54
2023-03-21T06:44:59.762Z,5.63
2023-03-21T06:46:41.154Z,5.83
2023-03-21T06:48:22.646Z,5.92
2023-03-21T06:50:03.986Z,5.97
2023-03-21T06:51:46.499Z,6.01
2023-03-21T06:53:27.782Z,6.14
2023-03-21T06:55:09.074Z,6.33
2023-03-21T06:56:50.458Z,6.31
2023-03-21T06:58:31.786Z,6.28
2023-03-21T07:00:13.125Z,6.19
2023-03-21T07:01:54.422Z,5.99
2023-03-21T07:03:35.705Z,5.45
2023-03-21T07:05:17.009Z,5.65
2023-03-21T07:06:58.310Z,5.69
2023-03-21T07:08:39.606Z,5.74
2023-03-21T07:10:20.921Z,5.88
2023-03-21T07:12:02.228Z,6.19
2023-03-21T07:13:43.552Z,5.89
2023-03-21T07:15:24.881Z,5.29
2023-03-21T07:17:06.175Z,5.04
2023-03-21T07:18:47.645Z,5.24
2023-03-21T07:20:29.033Z,5.25
2023-03-21T07:22:10.300Z,5.00
2023-03-21T07:23:51.601Z,5.18
2023-03-21T07:25:32.947Z,5.27
2023-03-21T07:27:14.307Z,5.33
2023-03-21T07:28:55.589Z,4.77
2023-03-21T07:30:36.899Z,4.49
2023-03-21T07:32:18.259Z,4.70
2023-03-21T07:33:59.557Z,4.80
2023-03-21T07:35:41.582Z,4.93
2023-03-21T07:37:23.082Z,4.96
2023-03-21T07:39:04.373Z,5.26
2023-03-21T07:40:45.708Z,5.62
2023-03-21T07:42:27.039Z,5.72
2023-03-21T07:44:08.379Z,5.87
2023-03-21T07:45:49.726Z,5.78
2023-03-21T07:47:31.040Z,5.61
2023-03-21T07:49:12.400Z,4.94
2023-03-21T07:50:53.765Z,5.23
2023-03-21T07:52:35.049Z,5.04
2023-03-21T07:54:16.358Z,5.23
2023-03-21T07:55:57.679Z,5.35
2023-03-21T07:57:39.068Z,5.54
2023-03-21T07:59:20.379Z,5.72
2023-03-21T08:01:01.795Z,5.60
2023-03-21T08:02:43.229Z,5.50
2023-03-21T08:04:24.562Z,5.03
2023-03-21T08:06:05.897Z,5.05
2023-03-21T08:07:47.197Z,5.15
2023-03-21T08:09:30.738Z,5.47
2023-03-21T08:11:12.456Z,5.37
2023-03-21T08:12:53.755Z,5.35
2023-03-21T08:14:35.075Z,5.41
2023-03-21T08:16:16.394Z,5.66
2023-03-21T08:17:57.691Z,5.76
2023-03-21T08:19:38.975Z,5.67
2023-03-21T08:21:20.305Z,5.75
2023-03-21T08:23:01.589Z,5.72
2023-03-21T08:24:42.888Z,5.58
2023-03-21T08:26:24.192Z,5.54
2023-03-21T08:28:05.505Z,5.72
2023-03-21T08:29:46.773Z,5.91
2023-03-21T08:31:28.078Z,5.91
2023-03-21T08:33:09.386Z,5.94
2023-03-21T08:34:50.744Z,6.04
2023-03-21T08:36:32.075Z,6.27
2023-03-21T08:38:13.400Z,6.47
2023-03-21T08:39:54.788Z,7.15
2023-03-21T08:41:36.143Z,7.92
2023-03-21T08:43:17.439Z,8.48
2023-03-21T08:44:58.721Z,9.20
2023-03-21T08:46:40.211Z,9.61
2023-03-21T08:48:21.636Z,10.47
2023-03-21T08:50:02.940Z,11.10
2023-03-21T08:51:44.294Z,11.63
2023-03-21T08:53:25.594Z,11.91
2023-03-21T08:55:06.887Z,12.45
2023-03-21T08:56:48.227Z,12.89
2023-03-21T08:58:29.548Z,13.27
2023-03-21T09:00:10.840Z,13.36
2023-03-21T09:01:52.180Z,13.41
2023-03-21T09:03:33.521Z,13.68
2023-03-21T09:05:14.828Z,13.80
2023-03-21T09:06:56.127Z,13.77
2023-03-21T09:08:37.412Z,14.06
2023-03-21T09:10:38.687Z,14.46
2023-03-21T09:12:39.957Z,14.80
2023-03-21T09:14:41.222Z,15.01
2023-03-21T09:16:42.480Z,15.35
2023-03-21T09:18:43.754Z,15.43
2023-03-21T09:20:25.203Z,15.63
2023-03-21T09:22:06.565Z,15.24
2023-03-21T09:23:47.873Z,15.69
2023-03-21T09:25:29.170Z,14.92
2023-03-21T09:27:10.471Z,15.35
2023-03-21T09:28:51.779Z,15.83
2023-03-21T09:30:33.078Z,14.89
2023-03-21T09:32:14.392Z,15.03
2023-03-21T09:33:55.746Z,15.49
2023-03-21T09:35:37.357Z,15.60
2023-03-21T09:37:18.867Z,16.07
2023-03-21T09:39:00.178Z,16.06
2023-03-21T09:40:41.456Z,16.18
2023-03-21T09:42:22.745Z,15.55
2023-03-21T09:44:04.044Z,15.82
2023-03-21T09:45:45.343Z,15.71
2023-03-21T09:47:26.706Z,15.73
2023-03-21T09:49:08.104Z,15.85
2023-03-21T09:50:49.372Z,16.12
2023-03-21T09:52:30.652Z,16.16
2023-03-21T09:54:11.954Z,16.38
2023-03-21T09:55:53.255Z,15.80
2023-03-21T09:57:34.524Z,15.28
2023-03-21T09:59:15.933Z,15.90
2023-03-21T10:00:57.218Z,14.82
2023-03-21T10:02:38.523Z,13.86
2023-03-21T10:04:19.864Z,14.35
2023-03-21T10:06:01.236Z,14.62
2023-03-21T10:07:42.565Z,14.68
2023-03-21T10:09:23.845Z,14.93
2023-03-21T10:11:05.195Z,15.00
2023-03-21T10:12:46.486Z,14.69
2023-03-21T10:14:27.858Z,14.54
2023-03-21T10:16:09.252Z,14.08
2023-03-21T10:17:50.606Z,13.87
2023-03-21T10:19:31.947Z,14.11
2023-03-21T10:21:13.241Z,13.52
2023-03-21T10:22:54.933Z,12.77
2023-03-21T10:24:36.235Z,12.89
2023-03-21T10:26:18.440Z,13.18
2023-03-21T10:28:01.144Z,12.95
2023-03-21T10:29:42.459Z,12.59
2023-03-21T10:31:23.779Z,12.42
2023-03-21T10:33:05.227Z,12.19
2023-03-21T10:34:46.598Z,12.50
2023-03-21T10:36:27.887Z,12.90
2023-03-21T10:38:09.219Z,13.03
2023-03-21T10:39:50.524Z,13.26
2023-03-21T10:41:31.806Z,13.78
2023-03-21T10:43:13.127Z,14.12
2023-03-21T10:44:54.400Z,14.73
2023-03-21T10:46:36.305Z,14.74
2023-03-21T10:48:18.193Z,14.72
2023-03-21T10:50:08.922Z,15.40
2023-03-21T10:51:51.169Z,15.18
2023-03-21T10:53:32.503Z,15.12
2023-03-21T10:55:13.798Z,15.39
2023-03-21T10:56:55.185Z,14.60
2023-03-21T10:58:36.537Z,14.80
2023-03-21T11:00:17.908Z,14.91
2023-03-21T11:01:59.259Z,15.72
2023-03-21T11:03:40.600Z,16.28
2023-03-21T11:05:21.939Z,16.29
2023-03-21T11:07:03.265Z,16.89
2023-03-21T11:08:44.592Z,16.84
2023-03-21T11:10:28.773Z,16.10
2023-03-21T11:12:10.265Z,16.23
2023-03-21T11:13:51.547Z,16.89
2023-03-21T11:15:32.803Z,17.19
2023-03-21T11:17:14.122Z,16.92
2023-03-21T11:18:55.715Z,16.55
2023-03-21T11:20:37.028Z,17.13
2023-03-21T11:22:18.338Z,17.31
2023-03-21T11:23:59.655Z,16.97
2023-03-21T11:25:41.354Z,17.15
2023-03-21T11:27:22.886Z,17.25
2023-03-21T11:29:04.223Z,16.96
2023-03-21T11:30:45.553Z,17.06
2023-03-21T11:32:26.896Z,17.20
2023-03-21T11:34:08.224Z,17.70
2023-03-21T11:35:49.591Z,17.83
2023-03-21T11:37:31.036Z,17.81
2023-03-21T11:39:12.375Z,17.65
2023-03-21T11:40:53.693Z,17.92
2023-03-21T11:42:35.152Z,18.12
2023-03-21T11:44:16.442Z,17.78
2023-03-21T11:45:58.054Z,17.70
2023-03-21T11:47:40.003Z,17.95
2023-03-21T11:49:21.414Z,18.13
2023-03-21T11:51:03.001Z,17.69
2023-03-21T11:52:44.418Z,17.87
2023-03-21T11:54:25.783Z,17.61
2023-03-21T11:56:07.225Z,17.78
2023-03-21T11:57:48.697Z,18.13
2023-03-21T11:59:30.108Z,17.95
2023-03-21T12:01:11.422Z,18.31
2023-03-21T12:02:52.809Z,18.58
2023-03-21T12:04:34.190Z,18.76
2023-03-21T12:06:15.576Z,19.04
2023-03-21T12:07:56.875Z,18.92
2023-03-21T12:09:38.204Z,19.17
2023-03-21T12:11:19.589Z,18.51
2023-03-21T12:13:00.901Z,18.57
2023-03-21T12:14:42.237Z,18.33
2023-03-21T12:16:23.644Z,18.65
2023-03-21T12:18:04.945Z,18.96
2023-03-21T12:19:46.207Z,18.95
2023-03-21T12:21:27.568Z,19.05
2023-03-21T12:23:08.986Z,19.16
2023-03-21T12:24:50.294Z,19.40
2023-03-21T12:26:31.620Z,19.37
2023-03-21T12:28:15.248Z,19.71
2023-03-21T12:29:56.621Z,19.83
2023-03-21T12:31:38.009Z,19.79
2023-03-21T12:33:19.365Z,19.94
2023-03-21T12:35:00.684Z,19.21
2023-03-21T12:36:42.012Z,19.26
2023-03-21T12:38:23.309Z,19.25
2023-03-21T12:40:04.639Z,19.42
2023-03-21T12:41:45.974Z,19.67
2023-03-21T12:43:27.280Z,20.06
2023-03-21T12:45:15.390Z,19.87
2023-03-21T12:46:57.273Z,20.06
2023-03-21T12:48:38.649Z,19.69
2023-03-21T12:50:19.952Z,20.23
2023-03-21T12:52:01.278Z,20.54
2023-03-21T12:53:42.589Z,20.60
2023-03-21T12:55:23.944Z,20.75
2023-03-21T12:57:05.244Z,20.12
2023-03-21T12:58:46.572Z,20.15
2023-03-21T13:00:27.918Z,19.63
2023-03-21T13:02:09.255Z,17.88
2023-03-21T13:03:50.623Z,18.36
2023-03-21T13:05:31.984Z,18.35
2023-03-21T13:07:13.305Z,18.25
2023-03-21T13:08:54.593Z,18.38
2023-03-21T13:10:36.081Z,18.07
2023-03-21T13:12:17.574Z,17.82
2023-03-21T13:13:58.856Z,17.88
2023-03-21T13:15:40.141Z,18.26
2023-03-21T13:17:21.516Z,18.85
2023-03-21T13:19:02.817Z,19.09
2023-03-21T13:20:44.154Z,18.89
2023-03-21T13:22:25.447Z,19.18
2023-03-21T13:24:06.757Z,19.30
2023-03-21T13:25:48.135Z,19.25
2023-03-21T13:27:29.481Z,19.68
2023-03-21T13:29:10.792Z,19.90
2023-03-21T13:30:52.130Z,19.94
2023-03-21T13:32:33.617Z,20.28
2023-03-21T13:34:15.016Z,20.20
2023-03-21T13:35:56.346Z,20.31
2023-03-21T13:37:37.675Z,20.24
2023-03-21T13:39:19.027Z,20.22
2023-03-21T13:41:00.350Z,20.12
2023-03-21T13:42:41.648Z,20.06
2023-03-21T13:44:22.969Z,20.35
2023-03-21T13:46:04.301Z,20.73
2023-03-21T13:47:45.659Z,20.38
2023-03-21T13:49:27.050Z,20.90
2023-03-21T13:51:08.371Z,21.08
2023-03-21T13:52:49.692Z,20.16
2023-03-21T13:54:30.998Z,19.45
2023-03-21T13:56:12.342Z,19.56
2023-03-21T13:57:53.648Z,19.15
2023-03-21T13:59:34.960Z,19.33
2023-03-21T14:01:16.345Z,19.23
2023-03-21T14:02:57.687Z,19.31
2023-03-21T14:04:48.236Z,18.40
2023-03-21T14:06:35.138Z,17.63
2023-03-21T14:08:24.632Z,17.35
2023-03-21T14:10:12.705Z,16.93
2023-03-21T14:11:56.650Z,16.87
2023-03-21T14:13:50.347Z,16.29
2023-03-21T14:15:32.725Z,16.12
2023-03-21T14:17:14.101Z,15.17
2023-03-21T14:18:56.118Z,15.01
2023-03-21T14:20:38.139Z,14.20
2023-03-21T14:22:19.694Z,13.91
2023-03-21T14:24:00.996Z,13.70
2023-03-21T14:25:47.522Z,13.14
2023-03-21T14:27:29.823Z,13.01
2023-03-21T14:29:25.202Z,12.78
2023-03-21T14:31:07.723Z,13.03
2023-03-21T14:32:49.052Z,13.77
2023-03-21T14:34:30.342Z,13.75
2023-03-21T14:36:12.406Z,13.75
2023-03-21T14:37:53.916Z,13.83
2023-03-21T14:39:35.220Z,13.91
2023-03-21T14:41:16.553Z,14.49
2023-03-21T14:42:58.081Z,14.38
2023-03-21T14:44:56.197Z,14.74
2023-03-21T14:46:37.909Z,14.94
2023-03-21T14:48:19.333Z,15.39
2023-03-21T14:50:00.796Z,15.69
2023-03-21T14:51:42.137Z,15.78
2023-03-21T14:53:23.434Z,15.91
2023-03-21T14:55:04.726Z,16.16
2023-03-21T14:56:46.074Z,15.76
2023-03-21T14:58:27.396Z,15.91
2023-03-21T15:00:08.723Z,16.07
2023-03-21T15:01:50.125Z,15.82
2023-03-21T15:03:31.439Z,15.91
2023-03-21T15:05:12.839Z,16.05
2023-03-21T15:06:54.176Z,15.74
2023-03-21T15:08:35.503Z,15.91
2023-03-21T15:10:16.814Z,15.79
2023-03-21T15:11:58.111Z,15.35
2023-03-21T15:13:39.414Z,15.59
2023-03-21T15:15:20.709Z,15.24
2023-03-21T15:17:02.077Z,15.22
2023-03-21T15:18:43.389Z,15.30
2023-03-21T15:20:24.739Z,14.14
2023-03-21T15:22:06.445Z,13.79
2023-03-21T15:23:47.797Z,13.84
2023-03-21T15:25:29.221Z,14.26
2023-03-21T15:27:10.542Z,14.17
2023-03-21T15:28:51.838Z,14.40
2023-03-21T15:30:33.198Z,14.30
2023-03-21T15:32:14.923Z,14.07
2023-03-21T15:33:56.467Z,14.04
2023-03-21T15:35:38.313Z,14.01
2023-03-21T15:37:20.115Z,14.06
2023-03-21T15:39:01.434Z,14.20
2023-03-21T15:40:42.810Z,13.81
2023-03-21T15:42:24.163Z,13.73
2023-03-21T15:44:05.515Z,13.89
2023-03-21T15:45:46.853Z,13.98
2023-03-21T15:47:28.167Z,13.82
2023-03-21T15:49:09.461Z,13.79
2023-03-21T15:50:50.802Z,13.80
2023-03-21T15:52:32.136Z,13.69
2023-03-21T15:54:15.197Z,14.02
2023-03-21T15:55:57.689Z,13.99
2023-03-21T15:57:38.974Z,14.01
2023-03-21T15:59:20.300Z,14.12
2023-03-21T16:01:01.783Z,13.85
2023-03-21T16:02:43.116Z,13.92
2023-03-21T16:04:24.688Z,14.16
2023-03-21T16:06:05.963Z,14.37
2023-03-21T16:07:47.241Z,14.51
2023-03-21T16:09:28.554Z,14.49
2023-03-21T16:11:09.962Z,14.20
2023-03-21T16:12:51.265Z,14.25
2023-03-21T16:14:32.551Z,14.11
2023-03-21T16:16:13.849Z,13.86
2023-03-21T16:17:55.167Z,13.73
2023-03-21T16:19:36.468Z,13.25
2023-03-21T16:21:17.784Z,13.38
2023-03-21T16:22:59.105Z,13.62
2023-03-21T16:24:40.392Z,13.34
2023-03-21T16:26:21.735Z,13.24
2023-03-21T16:28:03.265Z,12.80
2023-03-21T16:29:44.552Z,13.07
2023-03-21T16:31:25.923Z,12.74
2023-03-21T16:33:07.910Z,12.20
2023-03-21T16:34:49.716Z,11.18
2023-03-21T16:36:32.035Z,10.85
2023-03-21T16:38:13.346Z,10.92
2023-03-21T16:39:54.767Z,11.37
2023-03-21T16:41:36.170Z,11.48
2023-03-21T16:43:17.427Z,11.28
2023-03-21T16:44:58.724Z,10.80
2023-03-21T16:46:40.022Z,11.00
2023-03-21T16:48:21.348Z,10.74
2023-03-21T16:50:02.693Z,10.97
2023-03-21T16:51:44.206Z,11.10
2023-03-21T16:53:25.486Z,11.45
2023-03-21T16:55:06.766Z,11.60
2023-03-21T16:56:48.097Z,11.81
2023-03-21T16:58:29.730Z,11.94
2023-03-21T17:00:11.137Z,11.96
2023-03-21T17:01:52.500Z,11.88
2023-03-21T17:03:33.879Z,11.44
2023-03-21T17:05:15.176Z,11.60
2023-03-21T17:06:56.550Z,11.57
2023-03-21T17:08:37.804Z,11.68
2023-03-21T17:10:19.132Z,11.54
2023-03-21T17:12:00.430Z,11.73
2023-03-21T17:13:41.783Z,11.90
2023-03-21T17:15:23.647Z,11.85
2023-03-21T17:17:05.270Z,11.58
2023-03-21T17:18:46.607Z,11.45
2023-03-21T17:20:27.916Z,11.30
2023-03-21T17:22:09.225Z,10.95
2023-03-21T17:23:50.511Z,10.57
2023-03-21T17:25:31.809Z,10.23
2023-03-21T17:27:13.103Z,9.96
2023-03-21T17:28:55.454Z,9.92
2023-03-21T17:30:36.956Z,9.92
2023-03-21T17:32:18.345Z,10.08
2023-03-21T17:33:59.656Z,10.34
2023-03-21T17:35:40.973Z,10.54
2023-03-21T17:37:22.701Z,10.34
2023-03-21T17:39:04.255Z,10.14
2023-03-21T17:40:45.620Z,10.04
2023-03-21T17:42:26.959Z,9.77
2023-03-21T17:44:08.289Z,9.99
2023-03-21T17:45:49.662Z,9.93
2023-03-21T17:47:30.982Z,9.72
2023-03-21T17:49:12.286Z,9.53
2023-03-21T17:50:53.566Z,9.67
2023-03-21T17:52:34.859Z,9.78
2023-03-21T17:54:16.178Z,9.54
2023-03-21T17:55:57.528Z,9.45
2023-03-21T17:57:38.814Z,9.34
2023-03-21T17:59:20.123Z,9.11
2023-03-21T18:01:01.406Z,9.15
2023-03-21T18:02:42.694Z,9.06
2023-03-21T18:04:24.117Z,8.91
2023-03-21T18:06:05.498Z,8.71
2023-03-21T18:08:08.909Z,8.74
2023-03-21T18:09:48.063Z,9.02
2023-03-21T18:11:29.370Z,9.23
2023-03-21T18:13:10.687Z,9.04
2023-03-21T18:14:52.012Z,8.97
2023-03-21T18:16:33.353Z,8.75
2023-03-21T18:18:14.677Z,8.87
2023-03-21T18:19:56.060Z,8.43
2023-03-21T18:21:37.408Z,8.43
2023-03-21T18:23:18.839Z,8.34
2023-03-21T18:25:00.303Z,8.58
2023-03-21T18:26:41.600Z,8.23
2023-03-21T18:28:22.928Z,7.93
2023-03-21T18:30:26.170Z,7.70
2023-03-21T18:32:07.772Z,7.06
2023-03-21T18:33:49.609Z,6.96
2023-03-21T18:35:30.922Z,6.72
2023-03-21T18:37:13.550Z,6.82
2023-03-21T18:38:54.924Z,6.77
2023-03-21T18:40:36.486Z,7.05
2023-03-21T18:42:19.767Z,7.21
2023-03-21T18:44:13.436Z,7.12
2023-03-21T18:45:58.837Z,6.94
2023-03-21T18:47:40.142Z,6.95
2023-03-21T18:50:05.480Z,6.78
2023-03-21T18:51:22.740Z,6.81
2023-03-21T18:53:04.027Z,6.19
2023-03-21T18:54:45.312Z,6.15
2023-03-21T18:57:19.553Z,6.38
2023-03-21T18:58:27.934Z,6.57
2023-03-21T19:00:09.229Z,6.58
2023-03-21T19:01:50.576Z,6.82
2023-03-21T19:03:36.768Z,6.81
2023-03-21T19:05:18.807Z,7.11
2023-03-21T19:07:00.192Z,7.09
2023-03-21T19:08:42.016Z,7.31
2023-03-21T19:10:23.362Z,7.40
2023-03-21T19:12:04.644Z,7.02
2023-03-21T19:13:45.980Z,7.32
2023-03-21T19:15:27.277Z,7.48
2023-03-21T19:18:06.494Z,7.26
2023-03-21T19:19:09.925Z,6.70
2023-03-21T19:20:51.321Z,6.58
2023-03-21T19:22:32.927Z,6.49
2023-03-21T19:24:26.893Z,6.38
2023-03-21T19:26:09.785Z,6.24
2023-03-21T19:27:52.217Z,5.93
2023-03-21T19:29:33.698Z,5.77
2023-03-21T19:31:15.060Z,5.93
2023-03-21T19:32:56.409Z,5.98
2023-03-21T19:34:37.773Z,6.14
2023-03-21T19:36:22.698Z,6.14
2023-03-21T19:38:04.624Z,6.53
2023-03-21T19:39:45.959Z,6.92
2023-03-21T19:41:27.238Z,6.80
2023-03-21T19:43:31.206Z,6.81
2023-03-21T19:45:09.827Z,6.86
2023-03-21T19:46:51.211Z,6.83
2023-03-21T19:48:32.689Z,6.71
2023-03-21T19:52:15.381Z,6.38
2023-03-21T19:53:56.690Z,6.36
2023-03-21T19:55:37.967Z,6.54
2023-03-21T19:57:19.323Z,6.07
2023-03-21T19:59:00.626Z,6.47
2023-03-21T20:00:41.941Z,6.25
2023-03-21T20:02:35.012Z,6.41
2023-03-21T20:04:17.134Z,6.55
2023-03-21T20:05:58.397Z,6.52
2023-03-21T20:07:39.712Z,6.46
2023-03-21T20:11:22.590Z,6.59
2023-03-21T20:13:03.856Z,6.55
2023-03-21T20:14:45.203Z,6.16
2023-03-21T20:16:33.657Z,6.28
2023-03-21T20:18:15.776Z,6.48
2023-03-21T20:19:57.057Z,6.30
2023-03-21T20:21:48.540Z,6.39
2023-03-21T20:23:34.076Z,5.88
2023-03-21T20:25:15.643Z,6.45
2023-03-21T20:26:57.352Z,5.78
2023-03-21T20:28:39.430Z,6.05
2023-03-21T20:30:20.969Z,6.21
2023-03-21T20:32:02.284Z,6.49
2023-03-21T20:33:43.634Z,6.62
2023-03-21T20:36:07.750Z,6.31
2023-03-21T20:37:26.200Z,6.23
2023-03-21T20:39:07.520Z,6.69
2023-03-21T20:40:49.535Z,6.61
2023-03-21T20:42:31.537Z,6.88
2023-03-21T20:46:14.261Z,6.87
2023-03-21T20:47:55.670Z,6.75
2023-03-21T20:49:37.006Z,6.15
2023-03-21T20:53:19.593Z,6.63
2023-03-21T20:55:00.919Z,6.48
2023-03-21T20:56:42.251Z,5.78
2023-03-21T20:58:53.633Z,6.35
2023-03-21T21:00:24.981Z,6.14
2023-03-21T21:02:06.308Z,6.18
2023-03-21T21:03:47.590Z,6.22
2023-03-21T21:05:32.255Z,6.23
2023-03-21T21:07:15.553Z,5.99
2023-03-21T21:08:56.864Z,5.84
2023-03-21T21:11:04.080Z,5.93
2023-03-21T21:12:39.461Z,5.28
2023-03-21T21:14:20.737Z,5.30
2023-03-21T21:16:02.086Z,4.80
2023-03-21T21:19:44.713Z,5.33
2023-03-21T21:21:25.981Z,5.52
2023-03-21T21:23:07.646Z,5.64
2023-03-21T21:24:49.204Z,5.55
2023-03-21T21:26:30.708Z,5.74
2023-03-21T21:28:12.382Z,5.80
2023-03-21T21:29:53.775Z,5.53
2023-03-21T21:31:35.200Z,5.26
2023-03-21T21:33:16.532Z,5.28
2023-03-21T21:34:58.532Z,5.54
2023-03-21T21:36:40.025Z,5.48
2023-03-21T21:38:21.348Z,5.21
2023-03-21T21:40:02.616Z,4.97
2023-03-21T21:41:43.940Z,5.48
2023-03-21T21:43:25.256Z,5.53
2023-03-21T21:45:06.602Z,5.16
2023-03-21T21:46:47.969Z,5.68
2023-03-21T21:48:29.268Z,5.94
2023-03-21T21:50:11.262Z,5.63
2023-03-21T21:51:52.824Z,5.39
2023-03-21T21:53:34.136Z,5.33
2023-03-21T21:55:15.455Z,5.37
2023-03-21T21:56:56.813Z,5.37
2023-03-21T21:58:38.090Z,5.72
2023-03-21T22:00:19.410Z,5.93
2023-03-21T22:02:00.751Z,5.74
2023-03-21T22:03:42.073Z,5.74
2023-03-21T22:05:23.392Z,5.60
2023-03-21T22:07:04.705Z,5.05
2023-03-21T22:08:46.170Z,5.16
2023-03-21T22:10:27.472Z,5.36
2023-03-21T22:12:08.773Z,5.47
2023-03-21T22:13:50.062Z,5.32
2023-03-21T22:15:31.359Z,5.67
2023-03-21T22:17:12.634Z,5.93
2023-03-21T22:18:53.962Z,5.86
2023-03-21T22:20:35.278Z,6.14
2023-03-21T22:22:16.585Z,6.39
2023-03-21T22:23:57.877Z,6.59
2023-03-21T22:25:39.188Z,6.60
2023-03-21T22:27:20.479Z,6.47
2023-03-21T22:29:01.778Z,6.46
2023-03-21T22:30:43.275Z,6.49
2023-03-21T22:32:24.838Z,6.38
2023-03-21T22:34:06.179Z,6.56
2023-03-21T22:35:47.654Z,6.26
2023-03-21T22:37:29.446Z,6.08